sensor_id;sensor_type;location;lat;lon;timestamp;temperature;humidity
22364;DHT22;11349;53.412;-1.328;2023-07-13T00:01:57;16.20;21.50
22364;DHT22;11349;53.412;-1.328;2023-07-13T00:04:24;16.30;1.00
22364;DHT22;11349;53.412;-1.328;2023-07-13T00:06:51;16.30;1.00
22364;DHT22;11349;53.412;-1.328;2023-07-13T00:09:18;16.10;99.90
22364;DHT22;11349;53.412;-1.328;2023-07-13T00:11:44;15.90;1.00
22364;DHT22;11349;53.412;-1.328;2023-07-13T00:14:11;15.80;99.90
22364;DHT22;11349;53.412;-1.328;2023-07-13T00:16:38;15.80;99.90
22364;DHT22;11349;53.412;-1.328;2023-07-13T00:19:06;16.00;1.00
22364;DHT22;11349;53.412;-1.328;2023-07-13T00:21:32;15.90;1.00
22364;DHT22;11349;53.412;-1.328;2023-07-13T00:23:57;15.70;59.30
22364;DHT22;11349;53.412;-1.328;2023-07-13T00:26:23;15.60;99.90
22364;DHT22;11349;53.412;-1.328;2023-07-13T00:28:49;15.60;99.90
22364;DHT22;11349;53.412;-1.328;2023-07-13T00:31:15;15.50;99.90
22364;DHT22;11349;53.412;-1.328;2023-07-13T00:33:43;15.40;99.90
22364;DHT22;11349;53.412;-1.328;2023-07-13T00:36:10;15.20;1.00
22364;DHT22;11349;53.412;-1.328;2023-07-13T00:38:36;15.10;1.00
22364;DHT22;11349;53.412;-1.328;2023-07-13T00:41:03;15.00;1.00
22364;DHT22;11349;53.412;-1.328;2023-07-13T00:43:29;14.90;38.60
22364;DHT22;11349;53.412;-1.328;2023-07-13T00:48:32;15.00;15.80
22364;DHT22;11349;53.412;-1.328;2023-07-13T00:51:00;15.00;64.90
22364;DHT22;11349;53.412;-1.328;2023-07-13T00:53:27;14.90;99.90
22364;DHT22;11349;53.412;-1.328;2023-07-13T00:55:55;14.90;99.90
22364;DHT22;11349;53.412;-1.328;2023-07-13T00:58:22;14.90;99.90
22364;DHT22;11349;53.412;-1.328;2023-07-13T01:00:49;14.90;99.90
22364;DHT22;11349;53.412;-1.328;2023-07-13T01:03:16;14.90;99.90
22364;DHT22;11349;53.412;-1.328;2023-07-13T01:05:42;14.90;99.90
22364;DHT22;11349;53.412;-1.328;2023-07-13T01:08:09;14.90;99.90
22364;DHT22;11349;53.412;-1.328;2023-07-13T01:10:35;14.90;99.90
22364;DHT22;11349;53.412;-1.328;2023-07-13T01:13:10;14.90;99.90
22364;DHT22;11349;53.412;-1.328;2023-07-13T01:15:44;14.80;99.90
22364;DHT22;11349;53.412;-1.328;2023-07-13T01:18:14;14.80;99.90
22364;DHT22;11349;53.412;-1.328;2023-07-13T01:20:41;14.90;99.90
22364;DHT22;11349;53.412;-1.328;2023-07-13T01:23:09;14.80;99.90
22364;DHT22;11349;53.412;-1.328;2023-07-13T01:25:36;14.80;99.90
22364;DHT22;11349;53.412;-1.328;2023-07-13T01:28:07;14.80;99.90
22364;DHT22;11349;53.412;-1.328;2023-07-13T01:30:37;14.90;99.90
22364;DHT22;11349;53.412;-1.328;2023-07-13T01:33:06;14.90;99.90
22364;DHT22;11349;53.412;-1.328;2023-07-13T01:35:33;14.90;99.90
22364;DHT22;11349;53.412;-1.328;2023-07-13T01:37:58;15.00;99.90
22364;DHT22;11349;53.412;-1.328;2023-07-13T01:40:25;15.10;99.90
22364;DHT22;11349;53.412;-1.328;2023-07-13T01:42:51;15.20;99.90
22364;DHT22;11349;53.412;-1.328;2023-07-13T01:45:17;15.20;72.90
22364;DHT22;11349;53.412;-1.328;2023-07-13T01:47:43;15.20;99.90
22364;DHT22;11349;53.412;-1.328;2023-07-13T01:50:09;15.20;1.00
22364;DHT22;11349;53.412;-1.328;2023-07-13T01:52:35;15.20;1.00
22364;DHT22;11349;53.412;-1.328;2023-07-13T01:55:00;15.30;1.00
22364;DHT22;11349;53.412;-1.328;2023-07-13T01:57:26;15.30;99.90
22364;DHT22;11349;53.412;-1.328;2023-07-13T01:59:52;15.30;18.00
22364;DHT22;11349;53.412;-1.328;2023-07-13T02:02:17;15.30;1.00
22364;DHT22;11349;53.412;-1.328;2023-07-13T02:04:43;15.30;99.90
22364;DHT22;11349;53.412;-1.328;2023-07-13T02:07:09;15.50;23.50
22364;DHT22;11349;53.412;-1.328;2023-07-13T02:09:35;15.70;99.90
22364;DHT22;11349;53.412;-1.328;2023-07-13T02:12:01;15.80;99.90
22364;DHT22;11349;53.412;-1.328;2023-07-13T02:14:26;15.90;1.00
22364;DHT22;11349;53.412;-1.328;2023-07-13T02:16:52;15.60;6.20
22364;DHT22;11349;53.412;-1.328;2023-07-13T02:19:18;15.40;99.90
22364;DHT22;11349;53.412;-1.328;2023-07-13T02:21:43;15.30;1.00
22364;DHT22;11349;53.412;-1.328;2023-07-13T02:24:09;15.30;99.90
22364;DHT22;11349;53.412;-1.328;2023-07-13T02:26:35;15.50;99.90
22364;DHT22;11349;53.412;-1.328;2023-07-13T02:29:01;15.50;99.90
22364;DHT22;11349;53.412;-1.328;2023-07-13T02:31:27;15.40;1.00
22364;DHT22;11349;53.412;-1.328;2023-07-13T02:33:52;15.20;12.80
22364;DHT22;11349;53.412;-1.328;2023-07-13T02:36:18;15.10;99.90
22364;DHT22;11349;53.412;-1.328;2023-07-13T02:38:45;15.00;99.90
22364;DHT22;11349;53.412;-1.328;2023-07-13T02:41:11;15.00;1.00
22364;DHT22;11349;53.412;-1.328;2023-07-13T02:43:38;15.10;99.90
22364;DHT22;11349;53.412;-1.328;2023-07-13T02:46:03;15.00;99.90
22364;DHT22;11349;53.412;-1.328;2023-07-13T02:48:36;14.90;99.90
22364;DHT22;11349;53.412;-1.328;2023-07-13T02:51:02;14.80;1.00
22364;DHT22;11349;53.412;-1.328;2023-07-13T02:53:28;14.70;99.90
22364;DHT22;11349;53.412;-1.328;2023-07-13T02:55:54;14.60;1.00
22364;DHT22;11349;53.412;-1.328;2023-07-13T02:58:20;14.60;1.00
22364;DHT22;11349;53.412;-1.328;2023-07-13T03:00:47;14.50;1.00
22364;DHT22;11349;53.412;-1.328;2023-07-13T03:03:13;14.50;1.00
22364;DHT22;11349;53.412;-1.328;2023-07-13T03:05:41;14.40;1.00
22364;DHT22;11349;53.412;-1.328;2023-07-13T03:08:08;14.40;1.00
22364;DHT22;11349;53.412;-1.328;2023-07-13T03:10:34;14.40;1.00
22364;DHT22;11349;53.412;-1.328;2023-07-13T03:13:00;14.30;1.00
22364;DHT22;11349;53.412;-1.328;2023-07-13T03:15:26;14.30;18.80
22364;DHT22;11349;53.412;-1.328;2023-07-13T03:17:52;14.20;31.50
22364;DHT22;11349;53.412;-1.328;2023-07-13T03:20:18;14.20;64.20
22364;DHT22;11349;53.412;-1.328;2023-07-13T03:22:45;14.10;63.20
22364;DHT22;11349;53.412;-1.328;2023-07-13T03:25:11;14.20;18.20
22364;DHT22;11349;53.412;-1.328;2023-07-13T03:27:37;14.10;50.40
22364;DHT22;11349;53.412;-1.328;2023-07-13T03:30:04;14.20;46.40
22364;DHT22;11349;53.412;-1.328;2023-07-13T03:32:30;14.10;29.90
22364;DHT22;11349;53.412;-1.328;2023-07-13T03:34:56;14.00;53.30
22364;DHT22;11349;53.412;-1.328;2023-07-13T03:37:22;14.00;65.30
22364;DHT22;11349;53.412;-1.328;2023-07-13T03:39:48;14.00;91.60
22364;DHT22;11349;53.412;-1.328;2023-07-13T03:42:14;14.00;99.90
22364;DHT22;11349;53.412;-1.328;2023-07-13T03:44:40;14.00;99.90
22364;DHT22;11349;53.412;-1.328;2023-07-13T03:47:06;14.00;81.90
22364;DHT22;11349;53.412;-1.328;2023-07-13T03:49:34;14.10;1.00
22364;DHT22;11349;53.412;-1.328;2023-07-13T03:52:00;14.10;1.00
22364;DHT22;11349;53.412;-1.328;2023-07-13T03:54:26;14.10;1.00
22364;DHT22;11349;53.412;-1.328;2023-07-13T03:56:52;14.10;1.00
22364;DHT22;11349;53.412;-1.328;2023-07-13T03:59:18;14.10;1.00
22364;DHT22;11349;53.412;-1.328;2023-07-13T04:01:44;14.00;44.80
22364;DHT22;11349;53.412;-1.328;2023-07-13T04:04:10;14.00;81.50
22364;DHT22;11349;53.412;-1.328;2023-07-13T04:06:36;14.20;1.00
22364;DHT22;11349;53.412;-1.328;2023-07-13T04:09:03;14.20;1.00
22364;DHT22;11349;53.412;-1.328;2023-07-13T04:11:32;14.20;99.90
22364;DHT22;11349;53.412;-1.328;2023-07-13T04:13:58;14.20;1.00
22364;DHT22;11349;53.412;-1.328;2023-07-13T04:16:24;14.30;99.90
22364;DHT22;11349;53.412;-1.328;2023-07-13T04:18:51;14.30;1.00
22364;DHT22;11349;53.412;-1.328;2023-07-13T04:21:20;14.20;1.00
22364;DHT22;11349;53.412;-1.328;2023-07-13T04:23:46;14.10;1.00
22364;DHT22;11349;53.412;-1.328;2023-07-13T04:26:12;14.10;9.90
22364;DHT22;11349;53.412;-1.328;2023-07-13T04:28:38;14.00;31.40
22364;DHT22;11349;53.412;-1.328;2023-07-13T04:31:04;14.10;22.00
22364;DHT22;11349;53.412;-1.328;2023-07-13T04:33:30;14.10;3.00
22364;DHT22;11349;53.412;-1.328;2023-07-13T04:35:56;14.00;5.90
22364;DHT22;11349;53.412;-1.328;2023-07-13T04:38:24;14.10;78.10
22364;DHT22;11349;53.412;-1.328;2023-07-13T04:40:50;14.10;66.30
22364;DHT22;11349;53.412;-1.328;2023-07-13T04:43:17;14.00;97.70
22364;DHT22;11349;53.412;-1.328;2023-07-13T04:45:43;14.00;99.90
22364;DHT22;11349;53.412;-1.328;2023-07-13T04:48:08;14.00;99.90
22364;DHT22;11349;53.412;-1.328;2023-07-13T04:50:36;13.90;99.90
22364;DHT22;11349;53.412;-1.328;2023-07-13T04:53:02;13.90;99.90
22364;DHT22;11349;53.412;-1.328;2023-07-13T04:55:29;14.00;99.90
22364;DHT22;11349;53.412;-1.328;2023-07-13T04:57:56;13.90;99.90
22364;DHT22;11349;53.412;-1.328;2023-07-13T05:00:26;14.00;99.90
22364;DHT22;11349;53.412;-1.328;2023-07-13T05:02:54;14.00;99.90
22364;DHT22;11349;53.412;-1.328;2023-07-13T05:05:20;13.90;99.90
22364;DHT22;11349;53.412;-1.328;2023-07-13T05:07:46;13.90;99.90
22364;DHT22;11349;53.412;-1.328;2023-07-13T05:10:11;14.00;99.90
22364;DHT22;11349;53.412;-1.328;2023-07-13T05:12:38;13.90;99.90
22364;DHT22;11349;53.412;-1.328;2023-07-13T05:15:04;13.90;99.90
22364;DHT22;11349;53.412;-1.328;2023-07-13T05:17:30;13.90;99.90
22364;DHT22;11349;53.412;-1.328;2023-07-13T05:19:56;13.90;99.90
22364;DHT22;11349;53.412;-1.328;2023-07-13T05:22:22;13.90;99.90
22364;DHT22;11349;53.412;-1.328;2023-07-13T05:24:47;14.00;99.90
22364;DHT22;11349;53.412;-1.328;2023-07-13T05:27:13;14.00;99.90
22364;DHT22;11349;53.412;-1.328;2023-07-13T05:29:38;14.10;99.90
22364;DHT22;11349;53.412;-1.328;2023-07-13T05:32:04;14.20;28.90
22364;DHT22;11349;53.412;-1.328;2023-07-13T05:34:30;14.30;1.00
22364;DHT22;11349;53.412;-1.328;2023-07-13T05:36:56;14.40;99.90
22364;DHT22;11349;53.412;-1.328;2023-07-13T05:39:22;14.60;99.90
22364;DHT22;11349;53.412;-1.328;2023-07-13T05:41:48;14.70;99.90
22364;DHT22;11349;53.412;-1.328;2023-07-13T05:44:16;14.80;1.00
22364;DHT22;11349;53.412;-1.328;2023-07-13T05:46:42;15.10;99.90
22364;DHT22;11349;53.412;-1.328;2023-07-13T05:49:07;15.20;99.90
22364;DHT22;11349;53.412;-1.328;2023-07-13T05:51:33;15.20;99.90
22364;DHT22;11349;53.412;-1.328;2023-07-13T05:53:59;15.20;99.90
22364;DHT22;11349;53.412;-1.328;2023-07-13T05:56:25;15.10;99.90
22364;DHT22;11349;53.412;-1.328;2023-07-13T05:58:51;15.10;99.90
22364;DHT22;11349;53.412;-1.328;2023-07-13T06:01:17;15.10;99.90
22364;DHT22;11349;53.412;-1.328;2023-07-13T06:03:45;15.10;99.90
22364;DHT22;11349;53.412;-1.328;2023-07-13T06:06:11;15.10;99.90
22364;DHT22;11349;53.412;-1.328;2023-07-13T06:08:37;15.10;99.90
22364;DHT22;11349;53.412;-1.328;2023-07-13T06:11:24;15.20;99.90
22364;DHT22;11349;53.412;-1.328;2023-07-13T06:13:51;15.30;99.90
22364;DHT22;11349;53.412;-1.328;2023-07-13T06:16:17;15.30;99.90
22364;DHT22;11349;53.412;-1.328;2023-07-13T06:18:43;15.40;99.90
22364;DHT22;11349;53.412;-1.328;2023-07-13T06:21:12;15.50;99.90
22364;DHT22;11349;53.412;-1.328;2023-07-13T06:23:38;15.60;38.20
22364;DHT22;11349;53.412;-1.328;2023-07-13T06:26:05;15.70;1.00
22364;DHT22;11349;53.412;-1.328;2023-07-13T06:28:31;15.70;1.00
22364;DHT22;11349;53.412;-1.328;2023-07-13T06:30:58;15.90;99.90
22364;DHT22;11349;53.412;-1.328;2023-07-13T06:33:24;16.10;99.90
22364;DHT22;11349;53.412;-1.328;2023-07-13T06:35:51;16.20;99.90
22364;DHT22;11349;53.412;-1.328;2023-07-13T06:38:17;16.30;99.90
22364;DHT22;11349;53.412;-1.328;2023-07-13T06:40:43;16.30;99.90
22364;DHT22;11349;53.412;-1.328;2023-07-13T06:43:08;16.40;1.00
22364;DHT22;11349;53.412;-1.328;2023-07-13T06:45:44;16.60;1.00
22364;DHT22;11349;53.412;-1.328;2023-07-13T06:48:16;16.70;40.30
22364;DHT22;11349;53.412;-1.328;2023-07-13T06:50:42;16.70;11.40
22364;DHT22;11349;53.412;-1.328;2023-07-13T06:53:09;16.80;38.00
22364;DHT22;11349;53.412;-1.328;2023-07-13T06:55:35;16.90;1.00
22364;DHT22;11349;53.412;-1.328;2023-07-13T06:58:01;16.80;99.90
22364;DHT22;11349;53.412;-1.328;2023-07-13T07:00:26;16.70;99.90
22364;DHT22;11349;53.412;-1.328;2023-07-13T07:02:52;16.80;99.90
22364;DHT22;11349;53.412;-1.328;2023-07-13T07:05:18;17.10;99.90
22364;DHT22;11349;53.412;-1.328;2023-07-13T07:07:51;17.10;99.90
22364;DHT22;11349;53.412;-1.328;2023-07-13T07:10:18;17.10;29.60
22364;DHT22;11349;53.412;-1.328;2023-07-13T07:12:44;17.10;1.00
22364;DHT22;11349;53.412;-1.328;2023-07-13T07:15:10;17.10;1.00
22364;DHT22;11349;53.412;-1.328;2023-07-13T07:17:36;17.30;1.00
22364;DHT22;11349;53.412;-1.328;2023-07-13T07:20:03;17.40;99.90
22364;DHT22;11349;53.412;-1.328;2023-07-13T07:22:29;17.30;99.90
22364;DHT22;11349;53.412;-1.328;2023-07-13T07:24:56;17.40;99.90
22364;DHT22;11349;53.412;-1.328;2023-07-13T07:27:22;17.30;99.90
22364;DHT22;11349;53.412;-1.328;2023-07-13T07:29:48;17.40;99.90
22364;DHT22;11349;53.412;-1.328;2023-07-13T07:32:14;17.40;99.90
22364;DHT22;11349;53.412;-1.328;2023-07-13T07:34:40;17.40;99.90
22364;DHT22;11349;53.412;-1.328;2023-07-13T07:37:05;17.50;99.90
22364;DHT22;11349;53.412;-1.328;2023-07-13T07:39:31;17.90;99.90
22364;DHT22;11349;53.412;-1.328;2023-07-13T07:41:58;18.30;1.00
22364;DHT22;11349;53.412;-1.328;2023-07-13T07:44:24;18.50;99.90
22364;DHT22;11349;53.412;-1.328;2023-07-13T07:46:50;18.70;99.90
22364;DHT22;11349;53.412;-1.328;2023-07-13T07:49:16;18.80;99.90
22364;DHT22;11349;53.412;-1.328;2023-07-13T07:51:41;18.90;5.70
22364;DHT22;11349;53.412;-1.328;2023-07-13T07:54:07;19.00;1.00
22364;DHT22;11349;53.412;-1.328;2023-07-13T07:56:33;19.10;99.90
22364;DHT22;11349;53.412;-1.328;2023-07-13T07:58:59;19.40;1.00
22364;DHT22;11349;53.412;-1.328;2023-07-13T08:01:24;19.30;99.90
22364;DHT22;11349;53.412;-1.328;2023-07-13T08:03:50;19.10;99.90
22364;DHT22;11349;53.412;-1.328;2023-07-13T08:06:16;19.30;99.90
22364;DHT22;11349;53.412;-1.328;2023-07-13T08:08:42;19.60;55.20
22364;DHT22;11349;53.412;-1.328;2023-07-13T08:11:08;19.80;99.90
22364;DHT22;11349;53.412;-1.328;2023-07-13T08:13:35;19.80;99.90
22364;DHT22;11349;53.412;-1.328;2023-07-13T08:16:01;20.00;99.90
22364;DHT22;11349;53.412;-1.328;2023-07-13T08:18:26;20.30;99.90
22364;DHT22;11349;53.412;-1.328;2023-07-13T08:20:54;20.50;99.90
22364;DHT22;11349;53.412;-1.328;2023-07-13T08:23:22;21.20;1.00
22364;DHT22;11349;53.412;-1.328;2023-07-13T08:25:52;20.60;1.00
22364;DHT22;11349;53.412;-1.328;2023-07-13T08:28:19;21.10;1.00
22364;DHT22;11349;53.412;-1.328;2023-07-13T08:30:44;21.80;99.90
22364;DHT22;11349;53.412;-1.328;2023-07-13T08:33:15;22.10;1.00
22364;DHT22;11349;53.412;-1.328;2023-07-13T08:35:40;22.30;94.40
22364;DHT22;11349;53.412;-1.328;2023-07-13T08:38:06;22.10;99.90
22364;DHT22;11349;53.412;-1.328;2023-07-13T08:40:34;22.60;99.90
22364;DHT22;11349;53.412;-1.328;2023-07-13T08:43:00;22.60;99.90
22364;DHT22;11349;53.412;-1.328;2023-07-13T08:45:43;23.10;99.90
22364;DHT22;11349;53.412;-1.328;2023-07-13T08:48:14;23.00;99.90
22364;DHT22;11349;53.412;-1.328;2023-07-13T08:51:16;23.40;31.40
22364;DHT22;11349;53.412;-1.328;2023-07-13T08:53:49;23.50;99.90
22364;DHT22;11349;53.412;-1.328;2023-07-13T08:56:24;23.20;99.90
22364;DHT22;11349;53.412;-1.328;2023-07-13T08:58:55;22.60;96.70
22364;DHT22;11349;53.412;-1.328;2023-07-13T09:04:16;23.30;99.90
22364;DHT22;11349;53.412;-1.328;2023-07-13T09:15:06;23.60;99.90
22364;DHT22;11349;53.412;-1.328;2023-07-13T09:17:49;23.50;99.90
22364;DHT22;11349;53.412;-1.328;2023-07-13T09:20:39;22.90;59.30
22364;DHT22;11349;53.412;-1.328;2023-07-13T09:23:16;23.30;99.90
22364;DHT22;11349;53.412;-1.328;2023-07-13T09:25:47;23.10;1.00
22364;DHT22;11349;53.412;-1.328;2023-07-13T09:28:20;23.40;99.90
22364;DHT22;11349;53.412;-1.328;2023-07-13T09:31:04;23.40;99.90
22364;DHT22;11349;53.412;-1.328;2023-07-13T09:33:31;23.40;52.00
22364;DHT22;11349;53.412;-1.328;2023-07-13T09:35:58;23.60;99.90
22364;DHT22;11349;53.412;-1.328;2023-07-13T09:38:28;23.00;1.00
22364;DHT22;11349;53.412;-1.328;2023-07-13T09:41:21;23.30;1.00
22364;DHT22;11349;53.412;-1.328;2023-07-13T09:44:12;23.40;1.00
22364;DHT22;11349;53.412;-1.328;2023-07-13T09:46:47;23.30;99.90
22364;DHT22;11349;53.412;-1.328;2023-07-13T09:49:17;23.20;1.00
22364;DHT22;11349;53.412;-1.328;2023-07-13T09:51:43;23.40;99.90
22364;DHT22;11349;53.412;-1.328;2023-07-13T09:54:25;23.60;99.90
22364;DHT22;11349;53.412;-1.328;2023-07-13T09:56:58;23.50;99.90
22364;DHT22;11349;53.412;-1.328;2023-07-13T09:59:29;23.40;99.90
22364;DHT22;11349;53.412;-1.328;2023-07-13T10:01:55;23.40;99.90
22364;DHT22;11349;53.412;-1.328;2023-07-13T10:04:31;23.60;99.90
22364;DHT22;11349;53.412;-1.328;2023-07-13T10:07:08;23.70;99.90
22364;DHT22;11349;53.412;-1.328;2023-07-13T10:09:35;23.70;71.20
22364;DHT22;11349;53.412;-1.328;2023-07-13T10:12:00;23.70;1.00
22364;DHT22;11349;53.412;-1.328;2023-07-13T10:14:27;23.40;21.20
22364;DHT22;11349;53.412;-1.328;2023-07-13T10:16:58;23.30;51.10
22364;DHT22;11349;53.412;-1.328;2023-07-13T10:19:31;23.30;99.90
22364;DHT22;11349;53.412;-1.328;2023-07-13T10:22:29;23.20;99.90
22364;DHT22;11349;53.412;-1.328;2023-07-13T10:24:58;23.30;1.00
22364;DHT22;11349;53.412;-1.328;2023-07-13T10:27:34;23.10;28.60
22364;DHT22;11349;53.412;-1.328;2023-07-13T10:30:13;23.20;99.90
22364;DHT22;11349;53.412;-1.328;2023-07-13T10:32:43;23.00;1.00
22364;DHT22;11349;53.412;-1.328;2023-07-13T10:35:14;23.20;99.90
22364;DHT22;11349;53.412;-1.328;2023-07-13T10:37:54;23.30;99.90
22364;DHT22;11349;53.412;-1.328;2023-07-13T10:40:32;23.20;99.90
22364;DHT22;11349;53.412;-1.328;2023-07-13T10:43:02;22.90;2.20
22364;DHT22;11349;53.412;-1.328;2023-07-13T10:45:30;23.10;99.90
22364;DHT22;11349;53.412;-1.328;2023-07-13T10:47:59;23.10;1.00
22364;DHT22;11349;53.412;-1.328;2023-07-13T10:50:28;23.10;99.90
22364;DHT22;11349;53.412;-1.328;2023-07-13T10:53:02;23.10;32.30
22364;DHT22;11349;53.412;-1.328;2023-07-13T10:55:36;23.10;99.90
22364;DHT22;11349;53.412;-1.328;2023-07-13T11:03:37;22.80;99.90
22364;DHT22;11349;53.412;-1.328;2023-07-13T11:06:17;22.60;99.90
22364;DHT22;11349;53.412;-1.328;2023-07-13T11:08:58;22.80;9.00
22364;DHT22;11349;53.412;-1.328;2023-07-13T11:18:49;23.10;99.90
22364;DHT22;11349;53.412;-1.328;2023-07-13T11:21:23;23.10;99.90
22364;DHT22;11349;53.412;-1.328;2023-07-13T11:23:53;23.10;1.00
22364;DHT22;11349;53.412;-1.328;2023-07-13T11:26:42;23.30;12.60
22364;DHT22;11349;53.412;-1.328;2023-07-13T11:31:49;23.30;1.00
22364;DHT22;11349;53.412;-1.328;2023-07-13T11:34:21;23.30;99.90
22364;DHT22;11349;53.412;-1.328;2023-07-13T11:36:49;23.10;1.00
22364;DHT22;11349;53.412;-1.328;2023-07-13T11:39:40;23.20;1.00
22364;DHT22;11349;53.412;-1.328;2023-07-13T11:42:12;23.00;99.90
22364;DHT22;11349;53.412;-1.328;2023-07-13T11:44:45;23.00;99.90
22364;DHT22;11349;53.412;-1.328;2023-07-13T11:47:17;23.10;1.00
22364;DHT22;11349;53.412;-1.328;2023-07-13T11:49:50;23.20;1.00
22364;DHT22;11349;53.412;-1.328;2023-07-13T11:52:19;23.10;99.90
22364;DHT22;11349;53.412;-1.328;2023-07-13T11:54:52;23.10;1.00
22364;DHT22;11349;53.412;-1.328;2023-07-13T11:59:54;23.30;99.90
22364;DHT22;11349;53.412;-1.328;2023-07-13T12:02:38;23.20;99.90
22364;DHT22;11349;53.412;-1.328;2023-07-13T12:05:05;23.30;99.90
22364;DHT22;11349;53.412;-1.328;2023-07-13T12:07:35;23.40;99.90
22364;DHT22;11349;53.412;-1.328;2023-07-13T12:12:50;23.60;99.90
22364;DHT22;11349;53.412;-1.328;2023-07-13T12:15:17;23.40;6.20
22364;DHT22;11349;53.412;-1.328;2023-07-13T12:17:42;23.40;1.00
22364;DHT22;11349;53.412;-1.328;2023-07-13T12:20:33;23.50;99.90
22364;DHT22;11349;53.412;-1.328;2023-07-13T12:23:00;23.50;99.90
22364;DHT22;11349;53.412;-1.328;2023-07-13T12:25:28;23.50;99.90
22364;DHT22;11349;53.412;-1.328;2023-07-13T12:27:55;23.50;99.90
22364;DHT22;11349;53.412;-1.328;2023-07-13T12:30:32;23.40;1.00
22364;DHT22;11349;53.412;-1.328;2023-07-13T12:33:12;23.50;1.00
22364;DHT22;11349;53.412;-1.328;2023-07-13T12:35:49;23.50;99.90
22364;DHT22;11349;53.412;-1.328;2023-07-13T12:38:18;23.60;99.90
22364;DHT22;11349;53.412;-1.328;2023-07-13T12:40:49;23.60;1.00
22364;DHT22;11349;53.412;-1.328;2023-07-13T12:43:16;23.50;99.90
22364;DHT22;11349;53.412;-1.328;2023-07-13T12:46:00;23.50;99.90
22364;DHT22;11349;53.412;-1.328;2023-07-13T12:48:26;23.40;99.90
22364;DHT22;11349;53.412;-1.328;2023-07-13T12:50:54;23.50;1.00
22364;DHT22;11349;53.412;-1.328;2023-07-13T12:53:23;23.50;99.90
22364;DHT22;11349;53.412;-1.328;2023-07-13T12:55:56;23.40;99.90
22364;DHT22;11349;53.412;-1.328;2023-07-13T12:58:39;23.40;99.90
22364;DHT22;11349;53.412;-1.328;2023-07-13T13:01:11;23.50;99.90
22364;DHT22;11349;53.412;-1.328;2023-07-13T13:03:46;23.50;99.90
22364;DHT22;11349;53.412;-1.328;2023-07-13T13:08:56;23.40;99.90
22364;DHT22;11349;53.412;-1.328;2023-07-13T13:11:24;23.60;1.00
22364;DHT22;11349;53.412;-1.328;2023-07-13T13:13:52;23.60;1.00
22364;DHT22;11349;53.412;-1.328;2023-07-13T13:16:29;23.60;99.90
22364;DHT22;11349;53.412;-1.328;2023-07-13T13:18:59;23.50;99.90
22364;DHT22;11349;53.412;-1.328;2023-07-13T13:21:26;23.40;99.90
22364;DHT22;11349;53.412;-1.328;2023-07-13T13:23:51;23.50;99.90
22364;DHT22;11349;53.412;-1.328;2023-07-13T13:26:19;23.60;99.90
22364;DHT22;11349;53.412;-1.328;2023-07-13T13:28:46;23.70;99.90
22364;DHT22;11349;53.412;-1.328;2023-07-13T13:31:15;23.70;99.90
22364;DHT22;11349;53.412;-1.328;2023-07-13T13:33:43;23.60;99.90
22364;DHT22;11349;53.412;-1.328;2023-07-13T13:36:19;23.70;99.90
22364;DHT22;11349;53.412;-1.328;2023-07-13T13:38:45;23.80;99.90
22364;DHT22;11349;53.412;-1.328;2023-07-13T13:41:13;23.80;99.90
22364;DHT22;11349;53.412;-1.328;2023-07-13T13:43:40;23.90;99.90
22364;DHT22;11349;53.412;-1.328;2023-07-13T13:46:17;23.70;99.90
22364;DHT22;11349;53.412;-1.328;2023-07-13T13:48:44;23.80;1.00
22364;DHT22;11349;53.412;-1.328;2023-07-13T13:51:18;23.70;99.90
22364;DHT22;11349;53.412;-1.328;2023-07-13T13:53:45;23.70;1.00
22364;DHT22;11349;53.412;-1.328;2023-07-13T13:56:12;23.70;1.00
22364;DHT22;11349;53.412;-1.328;2023-07-13T13:58:39;23.70;99.90
22364;DHT22;11349;53.412;-1.328;2023-07-13T14:01:18;23.70;99.90
22364;DHT22;11349;53.412;-1.328;2023-07-13T14:03:45;23.80;1.00
22364;DHT22;11349;53.412;-1.328;2023-07-13T14:06:15;23.80;99.90
22364;DHT22;11349;53.412;-1.328;2023-07-13T14:08:42;23.70;1.00
22364;DHT22;11349;53.412;-1.328;2023-07-13T14:11:12;23.70;99.90
22364;DHT22;11349;53.412;-1.328;2023-07-13T14:13:45;23.80;1.00
22364;DHT22;11349;53.412;-1.328;2023-07-13T14:16:18;23.80;99.90
22364;DHT22;11349;53.412;-1.328;2023-07-13T14:18:45;23.70;99.90
22364;DHT22;11349;53.412;-1.328;2023-07-13T14:21:17;23.90;85.70
22364;DHT22;11349;53.412;-1.328;2023-07-13T14:23:45;23.70;99.90
22364;DHT22;11349;53.412;-1.328;2023-07-13T14:26:18;23.70;99.90
22364;DHT22;11349;53.412;-1.328;2023-07-13T14:28:54;23.70;99.90
22364;DHT22;11349;53.412;-1.328;2023-07-13T14:31:20;23.80;99.90
22364;DHT22;11349;53.412;-1.328;2023-07-13T14:33:47;23.90;99.90
22364;DHT22;11349;53.412;-1.328;2023-07-13T14:36:27;24.00;99.90
22364;DHT22;11349;53.412;-1.328;2023-07-13T14:38:54;24.00;39.00
22364;DHT22;11349;53.412;-1.328;2023-07-13T14:41:30;24.00;99.90
22364;DHT22;11349;53.412;-1.328;2023-07-13T14:43:55;24.10;99.90
22364;DHT22;11349;53.412;-1.328;2023-07-13T14:46:26;24.00;99.90
22364;DHT22;11349;53.412;-1.328;2023-07-13T14:49:04;23.90;99.90
22364;DHT22;11349;53.412;-1.328;2023-07-13T14:51:32;23.90;99.90
22364;DHT22;11349;53.412;-1.328;2023-07-13T14:54:02;23.90;99.90
22364;DHT22;11349;53.412;-1.328;2023-07-13T14:56:28;23.90;99.90
22364;DHT22;11349;53.412;-1.328;2023-07-13T14:58:54;24.00;99.90
22364;DHT22;11349;53.412;-1.328;2023-07-13T15:01:20;23.90;99.90
22364;DHT22;11349;53.412;-1.328;2023-07-13T15:03:49;24.00;99.90
22364;DHT22;11349;53.412;-1.328;2023-07-13T15:06:15;23.90;99.90
22364;DHT22;11349;53.412;-1.328;2023-07-13T15:08:41;23.80;99.90
22364;DHT22;11349;53.412;-1.328;2023-07-13T15:11:08;23.90;99.90
22364;DHT22;11349;53.412;-1.328;2023-07-13T15:13:37;23.90;99.90
22364;DHT22;11349;53.412;-1.328;2023-07-13T15:16:04;23.90;99.90
22364;DHT22;11349;53.412;-1.328;2023-07-13T15:18:30;23.80;99.90
22364;DHT22;11349;53.412;-1.328;2023-07-13T15:20:56;23.90;99.90
22364;DHT22;11349;53.412;-1.328;2023-07-13T15:23:26;23.90;1.00
22364;DHT22;11349;53.412;-1.328;2023-07-13T15:25:52;23.90;99.90
22364;DHT22;11349;53.412;-1.328;2023-07-13T15:28:18;23.80;99.90
22364;DHT22;11349;53.412;-1.328;2023-07-13T15:30:46;23.70;99.90
22364;DHT22;11349;53.412;-1.328;2023-07-13T15:33:26;23.60;99.90
22364;DHT22;11349;53.412;-1.328;2023-07-13T15:35:53;23.60;99.90
22364;DHT22;11349;53.412;-1.328;2023-07-13T15:38:28;23.70;99.90
22364;DHT22;11349;53.412;-1.328;2023-07-13T15:40:55;23.70;99.90
22364;DHT22;11349;53.412;-1.328;2023-07-13T15:43:22;23.80;99.90
22364;DHT22;11349;53.412;-1.328;2023-07-13T15:45:48;23.90;99.90
22364;DHT22;11349;53.412;-1.328;2023-07-13T15:48:16;23.90;99.90
22364;DHT22;11349;53.412;-1.328;2023-07-13T15:50:51;23.80;99.90
22364;DHT22;11349;53.412;-1.328;2023-07-13T15:53:24;23.80;99.90
22364;DHT22;11349;53.412;-1.328;2023-07-13T15:55:51;23.70;99.90
22364;DHT22;11349;53.412;-1.328;2023-07-13T15:58:17;23.70;99.90
22364;DHT22;11349;53.412;-1.328;2023-07-13T16:00:44;23.80;99.90
22364;DHT22;11349;53.412;-1.328;2023-07-13T16:03:10;23.80;99.90
22364;DHT22;11349;53.412;-1.328;2023-07-13T16:05:37;23.70;99.90
22364;DHT22;11349;53.412;-1.328;2023-07-13T16:08:09;23.80;99.90